This is the latest recevied weather packets stored in our database for station/object FHDOHA-13. If no packets are shown the sender has not sent any weather packets the latest 10 day(s).
| Time | Temp. | Humidity | Pressure | Rain* | Wind** | Luminosity | Snow |
|---|---|---|---|---|---|---|---|
| 1777620673 | 13.33° C | 53% | 1029.2 hPa | 0 mm | - | - | - |
| 1777619773 | 13.33° C | 52% | 1029.2 hPa | 0 mm | - | - | - |
| 1777618873 | 15° C | 42% | 1029 hPa | 0 mm | - | - | - |
| 1777617973 | 20.56° C | 41% | 1028.4 hPa | 0 mm | - | - | - |
| 1777617073 | 18.89° C | 45% | 1028.6 hPa | 0 mm | - | - | - |
| 1777616173 | 16.67° C | 51% | 1028.8 hPa | 0 mm | - | - | - |
| 1777615273 | 13.89° C | 61% | 1029.1 hPa | 0 mm | - | - | - |
| 1777614373 | 5.56° C | 75% | 1030 hPa | 0 mm | - | - | - |
| 1777613473 | 5.56° C | 75% | 1030 hPa | 0 mm | - | - | - |
| 1777612573 | 5° C | 76% | 1030 hPa | 0 mm | - | - | - |
| 1777610773 | 4.44° C | 77% | 1030.2 hPa | 0 mm | - | - | - |
| 1777609873 | 4.44° C | 77% | 1030.2 hPa | 0 mm | - | - | - |
| 1777608973 | 3.89° C | 76% | 1030.2 hPa | 0 mm | - | - | - |
| 1777608073 | 4.44° C | 76% | 1030.2 hPa | 0 mm | - | - | - |
| 1777607173 | 4.44° C | 75% | 1030.2 hPa | 0 mm | - | - | - |
| 1777606273 | 4.44° C | 75% | 1030.1 hPa | 0 mm | - | - | - |
| 1777605373 | 5° C | 74% | 1030.1 hPa | 0 mm | - | - | - |
| 1777604473 | 5° C | 73% | 1030.1 hPa | 0 mm | - | - | - |
| 1777603573 | 5° C | 72% | 1030 hPa | 0 mm | - | - | - |
| 1777602673 | 5.56° C | 72% | 1030 hPa | 0 mm | - | - | - |
| 1777601773 | 5.56° C | 72% | 1030 hPa | 0 mm | - | - | - |
| 1777600873 | 5.56° C | 72% | 1030 hPa | 0 mm | - | - | - |
| 1777599973 | 5.56° C | 70% | 1030 hPa | 0 mm | - | - | - |
| 1777599073 | 5.56° C | 71% | 1030 hPa | 0 mm | - | - | - |
| 1777598173 | 6.11° C | 70% | 1030 hPa | 0 mm | - | - | - |
* Rain latest hour (hover to see other rain measurements)
** Current wind speed in m/s (hover to see current wind gust speed)